createdAt,value
2022-10-11T00:01:00.024Z,66.20
2022-10-11T00:03:35.750Z,66.35
2022-10-11T00:06:06.172Z,66.45
2022-10-11T00:08:35.562Z,66.26
2022-10-11T00:11:06.762Z,66.54
2022-10-11T00:13:35.735Z,66.48
2022-10-11T00:16:09.239Z,66.69
2022-10-11T00:18:38.135Z,66.65
2022-10-11T00:21:10.308Z,66.43
2022-10-11T00:23:39.282Z,66.79
2022-10-11T00:26:09.795Z,66.88
2022-10-11T00:28:39.523Z,66.92
2022-10-11T00:31:13.771Z,67.00
2022-10-11T00:33:42.294Z,67.15
2022-10-11T00:36:13.837Z,67.21
2022-10-11T00:38:42.093Z,67.21
2022-10-11T00:41:10.818Z,67.27
2022-10-11T00:43:39.342Z,67.59
2022-10-11T00:46:13.642Z,67.39
2022-10-11T00:48:44.336Z,67.66
2022-10-11T00:51:26.163Z,67.53
2022-10-11T00:53:54.538Z,67.82
2022-10-11T00:56:27.715Z,67.91
2022-10-11T00:58:57.977Z,67.94
2022-10-11T01:01:26.756Z,68.05
2022-10-11T01:03:56.058Z,68.35
2022-10-11T01:06:24.637Z,68.40
2022-10-11T01:08:53.418Z,68.42
2022-10-11T01:11:25.773Z,68.57
2022-10-11T01:14:16.613Z,68.67
2022-10-11T01:16:57.943Z,68.74
2022-10-11T01:19:48.006Z,68.80
2022-10-11T01:22:51.701Z,69.04
2022-10-11T01:25:39.573Z,69.10
2022-10-11T01:28:19.020Z,69.27
2022-10-11T01:30:47.505Z,69.44
2022-10-11T01:33:32.762Z,69.60
2022-10-11T01:36:28.248Z,69.83
2022-10-11T01:39:05.176Z,69.83
2022-10-11T01:41:42.285Z,70.03
2022-10-11T01:44:13.605Z,70.40
2022-10-11T01:46:42.384Z,70.38
2022-10-11T01:49:11.209Z,70.54
2022-10-11T01:51:47.642Z,70.74
2022-10-11T01:55:08.030Z,70.69
2022-10-11T01:57:46.778Z,71.01
2022-10-11T02:00:24.597Z,71.09
2022-10-11T02:02:59.219Z,71.23
2022-10-11T02:05:57.911Z,71.45
2022-10-11T02:08:39.030Z,71.57
2022-10-11T02:11:17.400Z,71.71
2022-10-11T02:13:57.808Z,71.89
2022-10-11T02:16:32.792Z,71.97
2022-10-11T02:19:05.553Z,72.08
2022-10-11T02:21:36.404Z,72.05
2022-10-11T02:24:11.710Z,72.20
2022-10-11T02:26:44.455Z,72.34
2022-10-11T02:29:16.883Z,72.60
2022-10-11T02:31:45.835Z,72.69
2022-10-11T02:34:16.885Z,72.65
2022-10-11T02:36:59.124Z,72.78
2022-10-11T02:39:35.734Z,72.90
2022-10-11T02:42:07.163Z,72.91
2022-10-11T02:45:01.279Z,73.00
2022-10-11T02:47:30.636Z,73.21
2022-10-11T02:49:59.974Z,73.42
2022-10-11T02:52:28.262Z,73.54
2022-10-11T02:54:56.614Z,73.49
2022-10-11T02:57:24.699Z,73.60
2022-10-11T02:59:52.735Z,73.69
2022-10-11T03:02:20.899Z,73.80
2022-10-11T03:04:49.031Z,73.66
2022-10-11T03:07:17.116Z,73.89
2022-10-11T03:09:45.488Z,73.88
2022-10-11T03:12:13.828Z,74.03
2022-10-11T03:14:41.908Z,73.97
2022-10-11T03:17:34.368Z,74.00
2022-10-11T03:19:58.165Z,74.13
2022-10-11T03:22:27.068Z,74.15
2022-10-11T03:24:57.513Z,74.08
2022-10-11T03:27:29.168Z,74.12
2022-10-11T03:29:58.593Z,74.16
2022-10-11T03:32:27.145Z,74.16
2022-10-11T03:34:55.256Z,74.20
2022-10-11T03:37:23.571Z,74.34
2022-10-11T03:39:51.649Z,74.41
2022-10-11T03:42:20.189Z,74.56
2022-10-11T03:44:50.396Z,74.61
2022-10-11T03:47:18.492Z,74.50
2022-10-11T03:49:46.592Z,74.45
2022-10-11T03:52:14.700Z,74.64
2022-10-11T03:54:43.213Z,74.89
2022-10-11T03:57:11.316Z,74.97
2022-10-11T03:59:39.533Z,74.89
2022-10-11T04:02:07.705Z,75.08
2022-10-11T04:04:36.826Z,75.07
2022-10-11T04:07:04.930Z,75.06
2022-10-11T04:09:32.958Z,75.26
2022-10-11T04:12:01.042Z,75.14
2022-10-11T04:14:29.220Z,75.45
2022-10-11T04:17:00.249Z,75.41
2022-10-11T04:19:28.985Z,75.43
2022-10-11T04:21:57.084Z,75.58
2022-10-11T04:24:25.120Z,75.62
2022-10-11T04:26:53.288Z,75.50
2022-10-11T04:29:21.913Z,75.63
2022-10-11T04:31:50.236Z,75.74
2022-10-11T04:34:18.460Z,75.69
2022-10-11T04:36:49.914Z,75.78
2022-10-11T04:39:18.143Z,75.84
2022-10-11T04:41:46.297Z,75.96
2022-10-11T04:44:14.498Z,76.14
2022-10-11T04:46:42.609Z,76.43
2022-10-11T04:49:10.632Z,76.61
2022-10-11T04:51:38.679Z,76.75
2022-10-11T04:54:06.720Z,76.89
2022-10-11T04:56:34.751Z,76.84
2022-10-11T04:59:02.799Z,77.17
2022-10-11T05:01:30.835Z,77.17
2022-10-11T05:03:59.323Z,77.27
2022-10-11T05:06:27.413Z,77.30
2022-10-11T05:08:55.943Z,77.41
2022-10-11T05:11:27.598Z,77.52
2022-10-11T05:13:56.734Z,77.52
2022-10-11T05:16:24.842Z,77.74
2022-10-11T05:18:53.194Z,78.02
2022-10-11T05:21:26.364Z,78.12
2022-10-11T05:23:57.646Z,78.21
2022-10-11T05:26:27.827Z,78.51
2022-10-11T05:28:56.736Z,78.27
2022-10-11T05:31:25.143Z,78.31
2022-10-11T05:33:53.326Z,78.61
2022-10-11T05:36:22.111Z,78.89
2022-10-11T05:38:50.278Z,79.12
2022-10-11T05:41:18.450Z,79.29
2022-10-11T05:43:46.684Z,79.22
2022-10-11T05:46:15.125Z,79.32
2022-10-11T05:48:43.255Z,79.42
2022-10-11T05:51:12.279Z,79.56
2022-10-11T05:53:40.567Z,79.51
2022-10-11T05:56:23.326Z,79.51
2022-10-11T05:58:51.731Z,79.82
2022-10-11T06:01:25.458Z,80.01
2022-10-11T06:03:54.125Z,79.99
2022-10-11T06:06:22.517Z,80.01
2022-10-11T06:08:50.895Z,80.20
2022-10-11T06:11:25.507Z,80.23
2022-10-11T06:13:55.338Z,80.35
2022-10-11T06:16:23.657Z,80.22
2022-10-11T06:18:56.327Z,80.20
2022-10-11T06:21:24.592Z,80.28
2022-10-11T06:23:58.307Z,80.28
2022-10-11T06:26:30.133Z,80.19
2022-10-11T06:28:59.100Z,80.06
2022-10-11T06:31:27.337Z,80.28
2022-10-11T06:33:55.313Z,80.19
2022-10-11T06:36:23.446Z,80.02
2022-10-11T06:38:52.888Z,79.97
2022-10-11T06:41:25.219Z,79.84
2022-10-11T06:43:53.516Z,80.07
2022-10-11T06:46:23.965Z,79.97
2022-10-11T06:48:54.001Z,79.84
2022-10-11T06:51:22.996Z,79.88
2022-10-11T06:53:52.262Z,79.70
2022-10-11T06:56:20.677Z,79.67
2022-10-11T06:58:48.854Z,79.56
2022-10-11T07:01:19.264Z,79.44
2022-10-11T07:03:49.661Z,79.38
2022-10-11T07:06:21.562Z,79.22
2022-10-11T07:08:49.986Z,79.09
2022-10-11T07:11:21.180Z,79.25
2022-10-11T07:14:09.698Z,78.93
2022-10-11T07:16:38.335Z,78.76
2022-10-11T07:19:07.967Z,78.57
2022-10-11T07:21:36.791Z,78.21
2022-10-11T07:24:05.418Z,78.46
2022-10-11T07:26:38.264Z,78.20
2022-10-11T07:29:10.974Z,77.97
2022-10-11T07:31:40.825Z,77.53
2022-10-11T07:34:09.626Z,77.10
2022-10-11T07:36:37.731Z,76.80
2022-10-11T07:39:07.826Z,76.31
2022-10-11T07:41:38.847Z,75.81
2022-10-11T07:44:08.772Z,75.33
2022-10-11T07:46:36.902Z,75.04
2022-10-11T07:49:07.512Z,74.89
2022-10-11T07:51:35.755Z,74.59
2022-10-11T07:54:07.158Z,73.98
2022-10-11T07:56:37.630Z,73.24
2022-10-11T07:59:06.522Z,72.73
2022-10-11T08:01:34.703Z,72.61
2022-10-11T08:04:02.937Z,72.18
2022-10-11T08:06:32.854Z,71.69
2022-10-11T08:09:02.385Z,71.04
2022-10-11T08:11:33.656Z,70.80
2022-10-11T08:14:04.590Z,69.44
2022-10-11T08:16:32.772Z,69.20
2022-10-11T08:19:03.070Z,68.90
2022-10-11T08:21:31.865Z,68.74
2022-10-11T08:24:02.018Z,66.57
2022-10-11T08:26:30.912Z,67.31
2022-10-11T08:29:02.328Z,66.49
2022-10-11T08:31:31.218Z,64.82
2022-10-11T08:33:59.282Z,63.31
2022-10-11T08:36:27.347Z,63.66
2022-10-11T08:38:55.356Z,62.57
2022-10-11T08:41:49.862Z,62.02
2022-10-11T08:45:14.528Z,60.67
2022-10-11T08:47:46.998Z,61.35
2022-10-11T08:50:22.473Z,58.73
2022-10-11T08:52:59.539Z,58.01
2022-10-11T08:55:32.778Z,57.68
2022-10-11T08:58:01.293Z,58.05
2022-10-11T09:00:33.386Z,57.64
2022-10-11T09:03:09.232Z,57.01
2022-10-11T09:06:16.346Z,57.29
2022-10-11T09:09:29.054Z,56.03
2022-10-11T09:12:03.389Z,53.61
2022-10-11T09:15:10.998Z,52.34
2022-10-11T09:18:00.710Z,52.17
2022-10-11T09:20:36.279Z,48.29
2022-10-11T09:23:22.962Z,47.84
2022-10-11T09:26:06.361Z,47.00
2022-10-11T09:28:55.150Z,47.15
2022-10-11T09:31:27.981Z,45.37
2022-10-11T09:33:56.278Z,46.71
2022-10-11T09:36:50.149Z,46.37
2022-10-11T09:39:24.081Z,45.04
2022-10-11T09:42:07.902Z,43.96
2022-10-11T09:44:37.970Z,43.74
2022-10-11T09:47:07.405Z,43.66
2022-10-11T09:49:42.054Z,44.11
2022-10-11T09:52:16.885Z,44.41
2022-10-11T09:54:52.163Z,44.75
2022-10-11T09:57:29.034Z,45.42
2022-10-11T10:00:06.474Z,46.36
2022-10-11T10:02:44.075Z,47.00
2022-10-11T10:05:16.985Z,46.64
2022-10-11T10:08:05.225Z,46.25
2022-10-11T10:10:43.589Z,46.04
2022-10-11T10:13:28.133Z,46.29
2022-10-11T10:16:01.125Z,46.33
2022-10-11T10:18:37.519Z,46.46
2022-10-11T10:21:10.433Z,46.07
2022-10-11T10:23:38.897Z,45.89
2022-10-11T10:26:17.544Z,44.29
2022-10-11T10:29:08.629Z,44.20
2022-10-11T10:32:08.807Z,43.09
2022-10-11T10:34:27.709Z,42.60
2022-10-11T10:37:02.630Z,41.50
2022-10-11T10:39:56.810Z,39.90
2022-10-11T10:42:24.845Z,39.68
2022-10-11T10:44:57.081Z,40.07
2022-10-11T10:47:57.745Z,39.75
2022-10-11T10:50:32.769Z,39.82
2022-10-11T10:53:12.605Z,40.46
2022-10-11T10:55:44.621Z,41.60
2022-10-11T10:58:51.102Z,41.81
2022-10-11T11:01:27.543Z,42.79
2022-10-11T11:04:19.613Z,40.84
2022-10-11T11:06:58.002Z,38.86
2022-10-11T11:09:44.201Z,38.25
2022-10-11T11:12:23.965Z,38.76
2022-10-11T11:15:00.545Z,39.24
2022-10-11T11:17:37.611Z,37.96
2022-10-11T11:20:27.137Z,36.97
2022-10-11T11:23:09.132Z,36.69
2022-10-11T11:26:00.078Z,37.89
2022-10-11T11:28:46.396Z,39.09
2022-10-11T11:31:30.533Z,39.70
2022-10-11T11:34:19.122Z,41.69
2022-10-11T11:36:54.264Z,43.08
2022-10-11T11:39:27.945Z,44.41
2022-10-11T11:41:58.554Z,45.77
2022-10-11T11:44:47.412Z,46.79
2022-10-11T11:47:37.192Z,47.31
2022-10-11T11:50:23.093Z,47.97
2022-10-11T11:52:58.470Z,48.05
2022-10-11T11:55:36.576Z,47.67
2022-10-11T11:58:42.333Z,46.99
2022-10-11T12:01:30.947Z,46.82
2022-10-11T12:04:07.092Z,47.31
2022-10-11T12:06:43.704Z,47.32
2022-10-11T12:09:25.624Z,46.87
2022-10-11T12:12:03.577Z,46.12
2022-10-11T12:14:34.665Z,46.19
2022-10-11T12:17:16.765Z,46.26
2022-10-11T12:20:10.940Z,43.90
2022-10-11T12:23:19.962Z,42.55
2022-10-11T12:26:27.822Z,40.57
2022-10-11T12:29:46.142Z,38.27
2022-10-11T12:32:29.204Z,37.63
2022-10-11T12:35:48.125Z,38.45
2022-10-11T12:38:34.029Z,38.87
2022-10-11T12:41:11.223Z,40.42
2022-10-11T12:43:48.216Z,40.94
2022-10-11T12:46:33.973Z,41.22
2022-10-11T12:49:24.162Z,41.66
2022-10-11T12:52:02.580Z,42.25
2022-10-11T12:54:45.909Z,43.00
2022-10-11T12:57:45.320Z,42.84
2022-10-11T13:00:30.084Z,43.36
2022-10-11T13:03:05.521Z,43.68
2022-10-11T13:05:49.734Z,44.62
2022-10-11T13:08:31.592Z,45.36
2022-10-11T13:11:04.661Z,45.06
2022-10-11T13:13:38.997Z,44.45
2022-10-11T13:16:16.045Z,42.59
2022-10-11T13:18:46.582Z,42.12
2022-10-11T13:21:23.058Z,41.46
2022-10-11T13:23:57.805Z,41.64
2022-10-11T13:26:26.684Z,41.39
2022-10-11T13:28:55.707Z,42.33
2022-10-11T13:31:25.427Z,43.27
2022-10-11T13:33:56.504Z,43.64
2022-10-11T13:36:27.052Z,43.71
2022-10-11T13:39:01.012Z,41.53
2022-10-11T13:41:30.842Z,39.32
2022-10-11T13:44:00.385Z,38.25
2022-10-11T13:46:31.036Z,39.17
2022-10-11T13:49:05.379Z,40.24
2022-10-11T13:51:38.136Z,39.67
2022-10-11T13:54:13.117Z,38.28
2022-10-11T13:56:49.172Z,38.08
2022-10-11T13:59:23.685Z,38.47
2022-10-11T14:02:00.368Z,37.30
2022-10-11T14:04:40.133Z,37.34
2022-10-11T14:07:24.745Z,37.79
2022-10-11T14:09:53.510Z,37.17
2022-10-11T14:12:39.785Z,37.03
2022-10-11T14:15:33.001Z,36.30
2022-10-11T14:18:02.796Z,36.56
2022-10-11T14:20:37.148Z,36.66
2022-10-11T14:23:06.148Z,38.12
2022-10-11T14:25:34.833Z,39.57
2022-10-11T14:28:02.985Z,41.43
2022-10-11T14:30:31.719Z,42.87
2022-10-11T14:33:02.103Z,43.93
2022-10-11T14:35:32.427Z,45.00
2022-10-11T14:38:01.056Z,45.97
2022-10-11T14:40:31.201Z,46.72
2022-10-11T14:42:59.275Z,47.42
2022-10-11T14:45:28.512Z,47.91
2022-10-11T14:47:56.943Z,48.33
2022-10-11T14:50:48.045Z,47.89
2022-10-11T14:53:16.635Z,47.24
2022-10-11T14:55:45.042Z,47.53
2022-10-11T14:58:15.670Z,47.57
2022-10-11T15:00:44.245Z,48.18
2022-10-11T15:03:13.600Z,48.58
2022-10-11T15:05:41.649Z,48.54
2022-10-11T15:08:09.747Z,49.32
2022-10-11T15:10:40.636Z,49.84
2022-10-11T15:13:10.137Z,50.53
2022-10-11T15:15:41.204Z,50.74
2022-10-11T15:18:13.584Z,51.48
2022-10-11T15:20:43.972Z,51.74
2022-10-11T15:23:12.496Z,51.77
2022-10-11T15:25:41.719Z,52.00
2022-10-11T15:28:20.711Z,52.72
2022-10-11T15:30:48.816Z,52.89
2022-10-11T15:33:16.840Z,53.32
2022-10-11T15:35:44.932Z,53.39
2022-10-11T15:38:22.246Z,53.84
2022-10-11T15:40:51.777Z,53.91
2022-10-11T15:43:24.467Z,54.33
2022-10-11T15:45:54.166Z,54.81
2022-10-11T15:48:22.975Z,55.09
2022-10-11T15:50:53.235Z,55.22
2022-10-11T15:53:30.168Z,55.62
2022-10-11T15:56:04.162Z,56.25
2022-10-11T15:58:38.991Z,56.45
2022-10-11T16:01:16.306Z,56.90
2022-10-11T16:03:49.375Z,57.07
2022-10-11T16:06:19.035Z,57.45
2022-10-11T16:08:48.171Z,57.49
2022-10-11T16:11:16.849Z,57.76
2022-10-11T16:13:45.449Z,57.83
2022-10-11T16:16:14.088Z,57.92
2022-10-11T16:18:42.441Z,58.33
2022-10-11T16:21:15.704Z,58.63
2022-10-11T16:23:44.029Z,58.93
2022-10-11T16:26:16.587Z,59.12
2022-10-11T16:28:45.024Z,59.38
2022-10-11T16:31:21.327Z,59.43
2022-10-11T16:33:50.475Z,59.84
2022-10-11T16:36:40.656Z,59.93
2022-10-11T16:39:19.718Z,60.17
2022-10-11T16:41:48.088Z,60.27
2022-10-11T16:44:19.984Z,60.31
2022-10-11T16:46:49.109Z,60.64
2022-10-11T16:49:20.061Z,60.66
2022-10-11T16:51:49.205Z,61.02
2022-10-11T16:54:20.492Z,61.17
2022-10-11T16:56:50.184Z,61.41
2022-10-11T16:59:18.856Z,61.32
2022-10-11T17:01:47.251Z,61.79
2022-10-11T17:04:15.770Z,61.81
2022-10-11T17:06:44.185Z,61.87
2022-10-11T17:09:13.494Z,62.15
2022-10-11T17:11:42.482Z,62.27
2022-10-11T17:14:12.422Z,62.49
2022-10-11T17:16:40.783Z,62.81
2022-10-11T17:19:11.842Z,62.86
2022-10-11T17:21:40.974Z,63.15
2022-10-11T17:24:09.604Z,63.41
2022-10-11T17:26:37.810Z,63.25
2022-10-11T17:29:06.174Z,63.52
2022-10-11T17:31:36.634Z,63.86
2022-10-11T17:34:05.558Z,63.96
2022-10-11T17:36:36.642Z,64.33
2022-10-11T17:39:08.327Z,64.43
2022-10-11T17:41:37.374Z,64.50
2022-10-11T17:44:05.999Z,64.87
2022-10-11T17:46:34.586Z,64.87
2022-10-11T17:49:06.546Z,65.04
2022-10-11T17:51:36.860Z,65.20
2022-10-11T17:54:06.583Z,65.19
2022-10-11T17:56:38.029Z,65.52
2022-10-11T17:59:08.159Z,65.52
2022-10-11T18:01:36.684Z,65.80
2022-10-11T18:04:06.240Z,65.90
2022-10-11T18:06:39.611Z,65.90
2022-10-11T18:09:08.225Z,66.14
2022-10-11T18:11:36.509Z,66.23
2022-10-11T18:14:05.477Z,66.14
2022-10-11T18:16:35.968Z,66.42
2022-10-11T18:19:07.407Z,66.39
2022-10-11T18:21:37.918Z,66.54
2022-10-11T18:24:11.229Z,66.60
2022-10-11T18:26:39.731Z,66.79
2022-10-11T18:29:08.008Z,66.60
2022-10-11T18:31:36.343Z,66.77
2022-10-11T18:34:08.739Z,67.09
2022-10-11T18:36:38.245Z,67.05
2022-10-11T18:39:11.209Z,67.00
2022-10-11T18:41:40.200Z,67.23
2022-10-11T18:44:11.131Z,67.46
2022-10-11T18:46:39.355Z,67.70
2022-10-11T18:49:08.968Z,67.63
2022-10-11T18:51:40.148Z,67.66
2022-10-11T18:54:13.890Z,67.81
2022-10-11T18:56:45.457Z,67.97
2022-10-11T18:59:13.731Z,67.98
2022-10-11T19:01:44.784Z,68.17
2022-10-11T19:04:16.130Z,68.16
2022-10-11T19:06:49.966Z,68.19
2022-10-11T19:09:24.940Z,68.54
2022-10-11T19:11:55.561Z,68.63
2022-10-11T19:14:28.414Z,68.66
2022-10-11T19:16:57.760Z,68.63
2022-10-11T19:19:28.019Z,68.56
2022-10-11T19:21:56.342Z,68.90
2022-10-11T19:24:26.843Z,69.12
2022-10-11T19:27:01.197Z,69.26
2022-10-11T19:29:31.799Z,69.37
2022-10-11T19:32:03.122Z,69.39
2022-10-11T19:34:32.913Z,69.57
2022-10-11T19:37:03.273Z,69.53
2022-10-11T19:39:32.328Z,69.58
2022-10-11T19:42:01.027Z,69.58
2022-10-11T19:44:29.804Z,69.78
2022-10-11T19:47:02.755Z,69.95
2022-10-11T19:49:32.587Z,69.89
2022-10-11T19:52:01.469Z,70.15
2022-10-11T19:54:30.005Z,70.29
2022-10-11T19:56:58.268Z,70.14
2022-10-11T19:59:28.197Z,70.30
2022-10-11T20:01:56.461Z,70.41
2022-10-11T20:04:52.065Z,70.69
2022-10-11T20:07:13.012Z,70.68
2022-10-11T20:09:41.291Z,70.80
2022-10-11T20:12:09.556Z,71.15
2022-10-11T20:14:37.816Z,71.22
2022-10-11T20:17:06.053Z,71.07
2022-10-11T20:19:34.357Z,71.23
2022-10-11T20:22:02.556Z,71.45
2022-10-11T20:24:33.640Z,71.46
2022-10-11T20:27:04.778Z,71.58
2022-10-11T20:29:33.540Z,71.55
2022-10-11T20:32:01.835Z,71.81
2022-10-11T20:34:30.761Z,71.89
2022-10-11T20:36:59.609Z,71.93
2022-10-11T20:39:27.877Z,72.00
2022-10-11T20:41:56.079Z,72.14
2022-10-11T20:44:24.626Z,72.01
2022-10-11T20:46:52.868Z,72.13
2022-10-11T20:49:22.628Z,72.25
2022-10-11T20:51:50.933Z,72.37
2022-10-11T20:54:19.421Z,72.52
2022-10-11T20:56:47.711Z,72.47
2022-10-11T20:59:15.967Z,72.41
2022-10-11T21:01:44.299Z,72.42
2022-10-11T21:04:18.761Z,72.57
2022-10-11T21:06:48.711Z,72.82
2022-10-11T21:09:17.598Z,72.83
2022-10-11T21:11:46.861Z,72.93
2022-10-11T21:14:15.245Z,72.98
2022-10-11T21:16:43.936Z,72.97
2022-10-11T21:19:16.085Z,72.96
2022-10-11T21:21:52.575Z,72.98
2022-10-11T21:24:22.841Z,73.31
2022-10-11T21:26:51.132Z,73.16
2022-10-11T21:29:19.441Z,73.38
2022-10-11T21:31:47.654Z,73.31
2022-10-11T21:34:16.225Z,73.44
2022-10-11T21:36:44.665Z,73.35
2022-10-11T21:39:12.898Z,73.45
2022-10-11T21:41:42.423Z,73.42
2022-10-11T21:44:11.013Z,73.75
2022-10-11T21:47:05.350Z,73.66
2022-10-11T21:49:27.916Z,73.81
2022-10-11T21:51:56.651Z,73.57
2022-10-11T21:54:24.880Z,74.01
2022-10-11T21:56:53.193Z,74.17
2022-10-11T21:59:21.878Z,74.42
2022-10-11T22:01:50.397Z,74.06
2022-10-11T22:04:18.804Z,74.37
2022-10-11T22:06:47.239Z,74.10
2022-10-11T22:09:15.500Z,74.47
2022-10-11T22:11:43.762Z,74.43
2022-10-11T22:14:12.069Z,74.58
2022-10-11T22:16:41.528Z,74.41
2022-10-11T22:19:09.740Z,74.38
2022-10-11T22:21:42.556Z,74.10
2022-10-11T22:24:13.109Z,74.77
2022-10-11T22:26:41.332Z,74.70
2022-10-11T22:29:09.834Z,74.84
2022-10-11T22:31:38.218Z,75.02
2022-10-11T22:34:06.732Z,75.39
2022-10-11T22:36:35.028Z,75.63
2022-10-11T22:39:08.094Z,75.18
2022-10-11T22:41:37.762Z,75.50
2022-10-11T22:44:06.340Z,75.82
2022-10-11T22:46:34.624Z,75.59
2022-10-11T22:49:02.956Z,75.78
2022-10-11T22:51:31.440Z,76.18
2022-10-11T22:53:59.725Z,76.22
2022-10-11T22:56:27.977Z,76.11
2022-10-11T22:58:56.228Z,76.44
2022-10-11T23:01:24.412Z,76.22
2022-10-11T23:03:52.713Z,76.14
2022-10-11T23:06:20.974Z,76.20
2022-10-11T23:08:49.406Z,76.20
2022-10-11T23:11:18.299Z,76.18
2022-10-11T23:13:46.474Z,76.38
2022-10-11T23:16:14.749Z,76.32
2022-10-11T23:18:43.210Z,76.23
2022-10-11T23:21:11.586Z,76.32
2022-10-11T23:23:40.046Z,76.24
2022-10-11T23:26:13.780Z,76.06
2022-10-11T23:28:43.328Z,76.28
2022-10-11T23:31:16.589Z,76.07
2022-10-11T23:33:46.262Z,76.22
2022-10-11T23:36:20.341Z,76.29
2022-10-11T23:38:57.172Z,76.39
2022-10-11T23:41:27.749Z,76.03
2022-10-11T23:43:56.250Z,75.93
2022-10-11T23:46:25.050Z,76.38
2022-10-11T23:48:53.326Z,76.33
2022-10-11T23:51:21.607Z,76.31
2022-10-11T23:53:49.886Z,76.45
2022-10-11T23:56:18.079Z,76.29
2022-10-11T23:58:46.326Z,76.41
